createdAt,value
2022-09-11T00:01:41.809Z,83.33
2022-09-11T00:04:09.298Z,84.29
2022-09-11T00:06:35.677Z,82.72
2022-09-11T00:09:03.843Z,83.23
2022-09-11T00:11:31.394Z,83.15
2022-09-11T00:13:58.229Z,82.98
2022-09-11T00:16:35.340Z,84.44
2022-09-11T00:19:04.124Z,83.35
2022-09-11T00:21:30.570Z,84.67
2022-09-11T00:23:57.345Z,83.83
2022-09-11T00:26:24.729Z,82.57
2022-09-11T00:28:52.321Z,83.32
2022-09-11T00:31:21.902Z,84.24
2022-09-11T00:33:48.732Z,82.47
2022-09-11T00:36:17.806Z,83.63
2022-09-11T00:38:45.669Z,83.68
2022-09-11T00:41:23.378Z,84.96
2022-09-11T00:43:55.180Z,84.24
2022-09-11T00:46:22.977Z,84.28
2022-09-11T00:48:49.907Z,82.93
2022-09-11T00:51:24.805Z,81.73
2022-09-11T00:53:52.761Z,82.19
2022-09-11T00:56:19.342Z,81.33
2022-09-11T00:58:46.831Z,81.28
2022-09-11T01:01:14.548Z,81.00
2022-09-11T01:03:41.583Z,80.23
2022-09-11T01:06:08.162Z,79.97
2022-09-11T01:08:38.227Z,80.58
2022-09-11T01:14:01.478Z,80.36
2022-09-11T01:16:49.233Z,80.20
2022-09-11T01:19:50.799Z,80.09
2022-09-11T01:22:35.446Z,80.12
2022-09-11T01:25:15.199Z,80.57
2022-09-11T01:27:41.575Z,80.68
2022-09-11T01:30:12.703Z,80.77
2022-09-11T01:32:47.860Z,81.47
2022-09-11T01:35:20.705Z,81.08
2022-09-11T01:37:59.826Z,81.60
2022-09-11T01:40:28.253Z,81.65
2022-09-11T01:42:57.783Z,81.13
2022-09-11T01:45:25.597Z,82.56
2022-09-11T01:47:53.243Z,82.23
2022-09-11T01:50:21.351Z,82.10
2022-09-11T01:52:50.391Z,82.67
2022-09-11T01:55:19.384Z,82.43
2022-09-11T01:57:47.932Z,82.62
2022-09-11T02:00:14.701Z,82.93
2022-09-11T02:02:52.013Z,83.64
2022-09-11T02:05:20.989Z,82.91
2022-09-11T02:07:54.333Z,83.28
2022-09-11T02:10:24.941Z,85.05
2022-09-11T02:12:54.956Z,83.89
2022-09-11T02:15:25.204Z,84.01
2022-09-11T02:17:59.609Z,84.46
2022-09-11T02:20:26.012Z,83.24
2022-09-11T02:22:53.076Z,82.38
2022-09-11T02:25:19.361Z,82.43
2022-09-11T02:27:45.843Z,83.04
2022-09-11T02:30:12.599Z,82.31
2022-09-11T02:32:40.898Z,83.42
2022-09-11T02:35:07.706Z,82.91
2022-09-11T02:37:38.386Z,83.59
2022-09-11T02:40:15.350Z,84.42
2022-09-11T02:43:04.362Z,84.46
2022-09-11T02:45:35.531Z,85.08
2022-09-11T02:48:16.852Z,84.30
2022-09-11T02:50:46.199Z,84.42
2022-09-11T02:53:15.586Z,84.21
2022-09-11T02:55:52.525Z,84.43
2022-09-11T02:58:26.725Z,85.34
2022-09-11T03:00:56.236Z,84.18
2022-09-11T03:03:22.672Z,83.76
2022-09-11T03:05:49.269Z,84.27
2022-09-11T03:08:17.116Z,84.22
2022-09-11T03:10:46.650Z,84.19
2022-09-11T03:13:14.788Z,84.06
2022-09-11T03:15:44.318Z,83.20
2022-09-11T03:18:11.512Z,83.92
2022-09-11T03:20:38.586Z,83.91
2022-09-11T03:23:10.308Z,83.52
2022-09-11T03:25:36.613Z,83.35
2022-09-11T03:28:04.574Z,84.59
2022-09-11T03:30:30.917Z,83.95
2022-09-11T03:32:58.346Z,84.00
2022-09-11T03:35:25.148Z,84.97
2022-09-11T03:37:51.445Z,85.11
2022-09-11T03:40:20.160Z,85.19
2022-09-11T03:42:46.552Z,85.61
2022-09-11T03:45:14.266Z,85.58
2022-09-11T03:47:40.821Z,85.45
2022-09-11T03:50:10.107Z,85.69
2022-09-11T03:52:36.621Z,85.77
2022-09-11T03:55:04.234Z,86.52
2022-09-11T03:57:32.912Z,86.79
2022-09-11T03:59:59.276Z,85.73
2022-09-11T04:02:25.572Z,85.83
2022-09-11T04:04:51.864Z,86.04
2022-09-11T04:07:18.188Z,86.75
2022-09-11T04:09:44.496Z,87.02
2022-09-11T04:12:11.290Z,85.83
2022-09-11T04:14:37.588Z,85.73
2022-09-11T04:17:03.979Z,85.58
2022-09-11T04:19:30.329Z,85.29
2022-09-11T04:21:56.720Z,86.56
2022-09-11T04:24:22.998Z,86.96
2022-09-11T04:26:49.950Z,87.34
2022-09-11T04:29:17.775Z,86.60
2022-09-11T04:31:44.677Z,86.28
2022-09-11T04:34:11.441Z,85.92
2022-09-11T04:36:37.793Z,85.84
2022-09-11T04:39:04.099Z,85.37
2022-09-11T04:41:30.376Z,85.51
2022-09-11T04:44:02.425Z,86.21
2022-09-11T04:46:30.987Z,85.66
2022-09-11T04:49:02.141Z,86.14
2022-09-11T04:51:30.223Z,86.00
2022-09-11T04:54:00.006Z,85.80
2022-09-11T04:56:30.971Z,85.16
2022-09-11T04:58:58.451Z,85.21
2022-09-11T05:01:25.766Z,84.77
2022-09-11T05:03:52.369Z,84.55
2022-09-11T05:06:19.086Z,84.50
2022-09-11T05:08:46.144Z,84.46
2022-09-11T05:11:13.457Z,84.41
2022-09-11T05:13:40.380Z,83.01
2022-09-11T05:16:09.243Z,83.51
2022-09-11T05:18:35.906Z,83.85
2022-09-11T05:21:03.428Z,83.24
2022-09-11T05:23:30.016Z,82.97
2022-09-11T05:25:57.895Z,83.75
2022-09-11T05:28:24.423Z,83.92
2022-09-11T05:30:50.982Z,83.97
2022-09-11T05:33:17.324Z,84.45
2022-09-11T05:35:44.134Z,84.87
2022-09-11T05:38:13.486Z,84.54
2022-09-11T05:40:44.364Z,84.95
2022-09-11T05:43:10.760Z,85.54
2022-09-11T05:45:37.610Z,86.52
2022-09-11T05:48:03.988Z,85.37
2022-09-11T05:50:32.665Z,85.00
2022-09-11T05:52:58.950Z,86.59
2022-09-11T05:55:25.260Z,86.18
2022-09-11T05:57:52.319Z,86.02
2022-09-11T06:00:18.933Z,86.26
2022-09-11T06:02:45.394Z,85.64
2022-09-11T06:05:11.720Z,86.72
2022-09-11T06:07:38.021Z,86.13
2022-09-11T06:10:04.455Z,86.62
2022-09-11T06:12:30.778Z,86.89
2022-09-11T06:14:57.054Z,86.98
2022-09-11T06:17:24.160Z,86.71
2022-09-11T06:19:50.893Z,86.76
2022-09-11T06:22:17.640Z,87.70
2022-09-11T06:24:43.936Z,87.17
2022-09-11T06:27:10.340Z,87.50
2022-09-11T06:29:36.634Z,88.03
2022-09-11T06:32:03.783Z,88.36
2022-09-11T06:34:31.577Z,88.59
2022-09-11T06:36:57.901Z,87.34
2022-09-11T06:39:24.337Z,87.07
2022-09-11T06:41:50.640Z,87.21
2022-09-11T06:44:17.173Z,86.93
2022-09-11T06:46:44.259Z,86.92
2022-09-11T06:49:10.720Z,86.28
2022-09-11T06:51:37.109Z,86.45
2022-09-11T06:54:04.561Z,86.07
2022-09-11T06:56:32.393Z,85.78
2022-09-11T06:58:58.801Z,85.96
2022-09-11T07:01:25.363Z,85.64
2022-09-11T07:03:53.092Z,85.87
2022-09-11T07:06:30.130Z,85.30
2022-09-11T07:09:02.399Z,85.58
2022-09-11T07:11:32.276Z,84.96
2022-09-11T07:13:59.192Z,84.96
2022-09-11T07:16:25.839Z,85.00
2022-09-11T07:18:52.209Z,84.95
2022-09-11T07:21:21.176Z,84.97
2022-09-11T07:23:49.441Z,85.79
2022-09-11T07:26:16.668Z,85.09
2022-09-11T07:28:43.023Z,85.80
2022-09-11T07:31:16.388Z,84.60
2022-09-11T07:33:48.579Z,85.80
2022-09-11T07:36:16.681Z,84.92
2022-09-11T07:38:43.853Z,85.53
2022-09-11T07:41:11.342Z,86.32
2022-09-11T07:43:38.233Z,86.46
2022-09-11T07:46:05.389Z,86.95
2022-09-11T07:48:32.046Z,86.77
2022-09-11T07:51:02.181Z,87.09
2022-09-11T07:53:28.853Z,87.12
2022-09-11T07:55:56.078Z,86.73
2022-09-11T07:58:22.447Z,85.73
2022-09-11T08:00:49.021Z,86.77
2022-09-11T08:03:15.354Z,86.44
2022-09-11T08:05:41.640Z,86.15
2022-09-11T08:08:07.945Z,86.29
2022-09-11T08:10:36.145Z,85.90
2022-09-11T08:13:09.337Z,86.23
2022-09-11T08:15:35.937Z,85.32
2022-09-11T08:18:02.472Z,86.54
2022-09-11T08:20:29.134Z,86.64
2022-09-11T08:22:55.472Z,86.54
2022-09-11T08:25:22.121Z,87.34
2022-09-11T08:27:48.446Z,86.68
2022-09-11T08:30:14.807Z,86.62
2022-09-11T08:32:41.172Z,86.42
2022-09-11T08:35:07.609Z,86.42
2022-09-11T08:37:33.909Z,85.51
2022-09-11T08:40:01.482Z,84.52
2022-09-11T08:42:28.765Z,84.18
2022-09-11T08:44:57.258Z,83.60
2022-09-11T08:47:28.909Z,83.08
2022-09-11T08:49:58.386Z,83.66
2022-09-11T08:52:24.757Z,83.26
2022-09-11T08:54:51.606Z,82.46
2022-09-11T08:57:20.503Z,82.03
2022-09-11T08:59:56.559Z,81.74
2022-09-11T09:02:40.108Z,81.63
2022-09-11T09:05:16.393Z,81.29
2022-09-11T09:07:54.634Z,81.75
2022-09-11T09:10:24.965Z,81.91
2022-09-11T09:13:00.515Z,81.71
2022-09-11T09:15:33.190Z,81.09
2022-09-11T09:18:08.614Z,80.80
2022-09-11T09:20:40.734Z,79.85
2022-09-11T09:23:12.832Z,80.14
2022-09-11T09:25:42.037Z,80.32
2022-09-11T09:28:08.328Z,79.86
2022-09-11T09:30:41.675Z,80.77
2022-09-11T09:33:13.959Z,80.95
2022-09-11T09:35:41.768Z,80.58
2022-09-11T09:38:16.150Z,81.22
2022-09-11T09:41:05.244Z,80.19
2022-09-11T09:43:37.718Z,80.64
2022-09-11T09:46:10.226Z,79.77
2022-09-11T09:48:39.288Z,80.03
2022-09-11T09:51:05.990Z,79.92
2022-09-11T09:53:32.481Z,79.04
2022-09-11T09:56:00.199Z,79.07
2022-09-11T09:58:30.322Z,79.12
2022-09-11T10:00:56.627Z,79.17
2022-09-11T10:03:24.231Z,78.00
2022-09-11T10:05:53.296Z,78.85
2022-09-11T10:08:24.745Z,77.33
2022-09-11T10:10:58.425Z,76.29
2022-09-11T10:13:28.165Z,76.70
2022-09-11T10:16:02.123Z,76.75
2022-09-11T10:18:36.061Z,76.66
2022-09-11T10:21:11.643Z,76.55
2022-09-11T10:23:45.697Z,77.33
2022-09-11T10:26:15.394Z,76.57
2022-09-11T10:28:41.952Z,77.16
2022-09-11T10:31:08.661Z,75.78
2022-09-11T10:33:39.668Z,74.69
2022-09-11T10:36:08.406Z,74.38
2022-09-11T10:38:41.337Z,74.54
2022-09-11T10:41:13.821Z,74.85
2022-09-11T10:43:40.086Z,74.04
2022-09-11T10:46:28.215Z,73.69
2022-09-11T10:48:55.988Z,72.92
2022-09-11T10:51:23.421Z,73.51
2022-09-11T10:54:03.669Z,72.04
2022-09-11T10:56:30.674Z,71.60
2022-09-11T10:59:01.953Z,70.64
2022-09-11T11:01:28.316Z,71.39
2022-09-11T11:03:55.905Z,70.66
2022-09-11T11:06:23.654Z,71.32
2022-09-11T11:08:59.697Z,71.65
2022-09-11T11:11:26.022Z,73.11
2022-09-11T11:13:57.826Z,75.39
2022-09-11T11:16:41.761Z,77.38
2022-09-11T11:19:10.896Z,77.65
2022-09-11T11:21:49.520Z,77.53
2022-09-11T11:24:21.929Z,79.00
2022-09-11T11:26:48.193Z,79.18
2022-09-11T11:29:33.640Z,79.38
2022-09-11T11:32:21.000Z,80.57
2022-09-11T11:34:48.258Z,81.55
2022-09-11T11:37:21.296Z,82.44
2022-09-11T11:40:11.017Z,83.49
2022-09-11T11:42:47.232Z,83.92
2022-09-11T11:45:31.884Z,85.39
2022-09-11T11:48:05.800Z,85.70
2022-09-11T11:50:42.035Z,85.52
2022-09-11T11:53:18.025Z,86.13
2022-09-11T11:55:44.425Z,85.46
2022-09-11T11:58:26.053Z,85.25
2022-09-11T12:00:56.931Z,85.66
2022-09-11T12:03:23.814Z,85.45
2022-09-11T12:05:50.228Z,85.16
2022-09-11T12:08:17.065Z,86.00
2022-09-11T12:10:56.280Z,85.97
2022-09-11T12:13:26.157Z,83.61
2022-09-11T12:16:21.709Z,83.37
2022-09-11T12:19:20.198Z,83.70
2022-09-11T12:21:52.253Z,84.12
2022-09-11T12:24:20.090Z,83.80
2022-09-11T12:26:46.786Z,83.99
2022-09-11T12:29:16.180Z,83.50
2022-09-11T12:31:51.628Z,83.04
2022-09-11T12:34:19.950Z,82.46
2022-09-11T12:36:49.785Z,81.46
2022-09-11T12:39:25.344Z,81.88
2022-09-11T12:41:51.669Z,80.14
2022-09-11T12:44:29.901Z,80.93
2022-09-11T12:46:59.253Z,79.24
2022-09-11T12:49:27.105Z,80.11
2022-09-11T12:51:55.075Z,80.68
2022-09-11T12:54:26.904Z,80.77
2022-09-11T12:56:59.729Z,79.22
2022-09-11T12:59:30.029Z,78.75
2022-09-11T13:01:57.337Z,79.89
2022-09-11T13:04:25.231Z,79.66
2022-09-11T13:06:54.735Z,81.17
2022-09-11T13:09:22.920Z,80.19
2022-09-11T13:11:50.431Z,81.29
2022-09-11T13:14:28.677Z,80.45
2022-09-11T13:16:55.457Z,79.31
2022-09-11T13:19:21.982Z,80.35
2022-09-11T13:21:49.653Z,80.35
2022-09-11T13:24:30.344Z,81.21
2022-09-11T13:27:06.220Z,81.68
2022-09-11T13:29:33.963Z,82.14
2022-09-11T13:32:04.811Z,82.88
2022-09-11T13:34:31.509Z,82.97
2022-09-11T13:36:57.882Z,83.39
2022-09-11T13:39:25.829Z,84.33
2022-09-11T13:41:57.463Z,83.42
2022-09-11T13:44:23.767Z,84.43
2022-09-11T13:46:51.098Z,84.67
2022-09-11T13:49:17.354Z,85.43
2022-09-11T13:51:45.391Z,85.40
2022-09-11T13:54:16.381Z,85.24
2022-09-11T13:56:54.645Z,85.86
2022-09-11T13:59:36.428Z,87.33
2022-09-11T14:02:05.232Z,87.71
2022-09-11T14:04:33.172Z,87.16
2022-09-11T14:06:59.567Z,87.72
2022-09-11T14:09:25.938Z,87.58
2022-09-11T14:11:52.760Z,88.14
2022-09-11T14:14:27.005Z,88.79
2022-09-11T14:16:55.785Z,87.10
2022-09-11T14:19:24.672Z,87.85
2022-09-11T14:21:51.443Z,87.32
2022-09-11T14:24:32.858Z,86.36
2022-09-11T14:27:02.425Z,86.44
2022-09-11T14:29:31.324Z,87.18
2022-09-11T14:32:16.163Z,87.20
2022-09-11T14:34:42.631Z,86.61
2022-09-11T14:37:12.490Z,86.71
2022-09-11T14:39:39.072Z,86.73
2022-09-11T14:42:09.494Z,86.99
2022-09-11T14:44:37.499Z,86.60
2022-09-11T14:47:03.854Z,87.39
2022-09-11T14:49:30.394Z,86.94
2022-09-11T14:52:00.636Z,85.68
2022-09-11T14:54:31.071Z,85.62
2022-09-11T14:56:59.141Z,86.48
2022-09-11T14:59:25.600Z,85.86
2022-09-11T15:01:52.252Z,86.04
2022-09-11T15:04:21.026Z,85.67
2022-09-11T15:06:51.745Z,85.68
2022-09-11T15:09:18.066Z,86.48
2022-09-11T15:11:45.236Z,86.53
2022-09-11T15:14:23.691Z,86.54
2022-09-11T15:17:02.386Z,85.85
2022-09-11T15:19:30.159Z,85.84
2022-09-11T15:21:57.170Z,84.52
2022-09-11T15:24:24.207Z,84.59
2022-09-11T15:26:52.731Z,85.00
2022-09-11T15:29:19.474Z,85.88
2022-09-11T15:31:46.830Z,86.41
2022-09-11T15:34:13.957Z,87.58
2022-09-11T15:36:41.509Z,87.82
2022-09-11T15:39:10.402Z,88.06
2022-09-11T15:41:37.323Z,88.02
2022-09-11T15:44:09.095Z,88.85
2022-09-11T15:46:35.517Z,89.21
2022-09-11T15:49:01.921Z,90.07
2022-09-11T15:51:28.318Z,90.30
2022-09-11T15:53:58.519Z,90.22
2022-09-11T15:56:26.084Z,88.55
2022-09-11T15:58:52.644Z,87.69
2022-09-11T16:01:23.241Z,86.93
2022-09-11T16:03:59.182Z,87.51
2022-09-11T16:06:26.356Z,86.26
2022-09-11T16:08:56.065Z,86.49
2022-09-11T16:11:24.532Z,83.68
2022-09-11T16:13:53.955Z,83.32
2022-09-11T16:16:20.468Z,80.24
2022-09-11T16:18:46.932Z,79.81
2022-09-11T16:21:15.312Z,79.43
2022-09-11T16:23:42.006Z,76.87
2022-09-11T16:26:09.709Z,77.33
2022-09-11T16:28:37.066Z,74.58
2022-09-11T16:31:03.616Z,76.22
2022-09-11T16:33:30.980Z,75.30
2022-09-11T16:36:01.617Z,74.87
2022-09-11T16:38:29.100Z,73.21
2022-09-11T16:41:08.009Z,74.10
2022-09-11T16:43:34.973Z,73.63
2022-09-11T16:46:02.185Z,73.64
2022-09-11T16:48:29.226Z,72.02
2022-09-11T16:50:56.263Z,72.97
2022-09-11T16:53:24.965Z,74.13
2022-09-11T16:55:53.232Z,73.83
2022-09-11T16:58:20.039Z,73.77
2022-09-11T17:00:46.489Z,75.74
2022-09-11T17:03:13.583Z,75.17
2022-09-11T17:05:50.036Z,75.20
2022-09-11T17:08:17.164Z,76.01
2022-09-11T17:10:44.448Z,76.75
2022-09-11T17:13:11.338Z,76.74
2022-09-11T17:15:37.904Z,76.56
2022-09-11T17:18:04.524Z,76.99
2022-09-11T17:20:30.930Z,77.09
2022-09-11T17:22:58.247Z,77.10
2022-09-11T17:25:25.778Z,77.41
2022-09-11T17:27:52.117Z,77.72
2022-09-11T17:30:18.914Z,78.20
2022-09-11T17:32:45.485Z,77.58
2022-09-11T17:35:12.300Z,77.57
2022-09-11T17:37:38.773Z,77.68
2022-09-11T17:40:06.086Z,77.78
2022-09-11T17:42:33.149Z,77.57
2022-09-11T17:45:00.173Z,77.41
2022-09-11T17:47:30.570Z,77.08
2022-09-11T17:49:57.125Z,76.81
2022-09-11T17:52:24.887Z,76.96
2022-09-11T17:54:51.263Z,76.75
2022-09-11T17:57:17.626Z,76.41
2022-09-11T17:59:44.192Z,76.55
2022-09-11T18:02:13.815Z,76.60
2022-09-11T18:04:40.389Z,76.39
2022-09-11T18:07:06.846Z,76.54
2022-09-11T18:09:33.323Z,76.47
2022-09-11T18:11:59.702Z,76.33
2022-09-11T18:14:27.788Z,76.02
2022-09-11T18:16:54.218Z,76.04
2022-09-11T18:19:20.526Z,75.66
2022-09-11T18:21:50.216Z,75.90
2022-09-11T18:24:19.914Z,76.16
2022-09-11T18:26:57.252Z,76.15
2022-09-11T18:29:26.944Z,75.54
2022-09-11T18:31:53.575Z,75.44
2022-09-11T18:34:21.463Z,75.73
2022-09-11T18:36:47.877Z,74.71
2022-09-11T18:39:15.343Z,75.76
2022-09-11T18:41:41.777Z,75.01
2022-09-11T18:44:10.408Z,76.54
2022-09-11T18:46:37.610Z,76.77
2022-09-11T18:49:04.567Z,76.54
2022-09-11T18:51:31.109Z,76.34
2022-09-11T18:54:00.124Z,75.61
2022-09-11T18:56:28.471Z,76.41
2022-09-11T18:58:55.954Z,76.55
2022-09-11T19:01:24.222Z,75.69
2022-09-11T19:03:55.342Z,76.41
2022-09-11T19:06:23.381Z,75.73
2022-09-11T19:08:49.725Z,77.20
2022-09-11T19:11:24.166Z,76.96
2022-09-11T19:13:52.663Z,77.31
2022-09-11T19:16:19.977Z,79.02
2022-09-11T19:18:47.295Z,81.13
2022-09-11T19:21:18.230Z,81.69
2022-09-11T19:23:45.731Z,82.25
2022-09-11T19:26:12.231Z,80.94
2022-09-11T19:28:41.046Z,82.24
2022-09-11T19:31:08.448Z,82.68
2022-09-11T19:33:36.093Z,83.04
2022-09-11T19:36:09.185Z,83.32
2022-09-11T19:38:40.968Z,81.61
2022-09-11T19:41:10.879Z,82.15
2022-09-11T19:43:37.757Z,81.77
2022-09-11T19:46:11.114Z,81.91
2022-09-11T19:48:39.045Z,82.42
2022-09-11T19:51:11.439Z,81.64
2022-09-11T19:53:39.137Z,80.79
2022-09-11T19:56:06.326Z,80.24
2022-09-11T19:58:32.819Z,79.32
2022-09-11T20:01:03.080Z,79.89
2022-09-11T20:03:29.559Z,79.34
2022-09-11T20:05:56.089Z,79.20
2022-09-11T20:08:22.600Z,78.63
2022-09-11T20:10:49.203Z,78.84
2022-09-11T20:13:15.680Z,78.66
2022-09-11T20:15:42.405Z,78.17
2022-09-11T20:18:09.056Z,78.32
2022-09-11T20:20:36.444Z,77.27
2022-09-11T20:23:03.196Z,77.66
2022-09-11T20:25:29.566Z,76.43
2022-09-11T20:27:57.946Z,76.22
2022-09-11T20:30:25.020Z,76.96
2022-09-11T20:32:51.628Z,76.78
2022-09-11T20:35:18.006Z,76.87
2022-09-11T20:37:44.335Z,77.17
2022-09-11T20:40:12.121Z,77.03
2022-09-11T20:42:39.676Z,77.65
2022-09-11T20:45:06.249Z,78.08
2022-09-11T20:47:32.598Z,77.52
2022-09-11T20:50:00.500Z,77.15
2022-09-11T20:52:27.112Z,77.09
2022-09-11T20:54:54.289Z,77.54
2022-09-11T20:57:21.110Z,77.60
2022-09-11T20:59:47.710Z,77.38
2022-09-11T21:02:14.743Z,78.29
2022-09-11T21:04:41.218Z,77.49
2022-09-11T21:07:07.565Z,78.03
2022-09-11T21:09:33.879Z,78.42
2022-09-11T21:12:00.215Z,78.15
2022-09-11T21:14:26.566Z,78.42
2022-09-11T21:16:53.083Z,78.32
2022-09-11T21:19:19.427Z,78.55
2022-09-11T21:21:45.723Z,78.19
2022-09-11T21:24:13.160Z,79.82
2022-09-11T21:26:39.692Z,78.59
2022-09-11T21:29:07.847Z,78.01
2022-09-11T21:31:34.745Z,78.78
2022-09-11T21:34:01.386Z,78.82
2022-09-11T21:36:27.743Z,78.98
2022-09-11T21:38:54.047Z,80.25
2022-09-11T21:41:20.436Z,79.84
2022-09-11T21:43:47.418Z,78.74
2022-09-11T21:46:14.132Z,78.53
2022-09-11T21:48:40.917Z,79.15
2022-09-11T21:51:10.488Z,78.69
2022-09-11T21:53:37.385Z,78.57
2022-09-11T21:56:04.066Z,78.95
2022-09-11T21:58:30.980Z,77.72
2022-09-11T22:01:02.357Z,77.21
2022-09-11T22:03:28.710Z,77.60
2022-09-11T22:05:55.594Z,76.76
2022-09-11T22:08:21.964Z,77.33
2022-09-11T22:10:49.628Z,76.16
2022-09-11T22:13:16.963Z,75.74
2022-09-11T22:15:44.472Z,75.41
2022-09-11T22:18:11.098Z,76.00
2022-09-11T22:20:37.849Z,76.36
2022-09-11T22:23:04.654Z,75.75
2022-09-11T22:25:30.946Z,75.86
2022-09-11T22:27:57.538Z,75.17
2022-09-11T22:30:23.819Z,75.75
2022-09-11T22:32:50.403Z,74.81
2022-09-11T22:35:16.797Z,75.26
2022-09-11T22:37:43.112Z,75.57
2022-09-11T22:40:09.742Z,76.45
2022-09-11T22:42:36.068Z,76.28
2022-09-11T22:45:02.386Z,76.65
2022-09-11T22:47:28.760Z,78.58
2022-09-11T22:49:55.051Z,77.73
2022-09-11T22:52:21.345Z,78.27
2022-09-11T22:54:47.834Z,77.56
2022-09-11T22:57:14.146Z,78.37
2022-09-11T22:59:40.441Z,78.86
2022-09-11T23:02:06.898Z,80.17
2022-09-11T23:04:33.231Z,78.76
2022-09-11T23:07:18.251Z,78.14
2022-09-11T23:09:44.612Z,79.44
2022-09-11T23:12:11.365Z,79.01
2022-09-11T23:14:37.669Z,79.17
2022-09-11T23:17:03.970Z,79.95
2022-09-11T23:19:30.420Z,79.53
2022-09-11T23:21:56.720Z,79.50
2022-09-11T23:24:23.013Z,79.54
2022-09-11T23:26:49.662Z,79.21
2022-09-11T23:29:15.955Z,79.08
2022-09-11T23:31:42.329Z,78.50
2022-09-11T23:34:08.976Z,79.26
2022-09-11T23:36:35.625Z,79.83
2022-09-11T23:39:02.150Z,79.78
2022-09-11T23:41:28.480Z,79.00
2022-09-11T23:43:55.163Z,79.78
2022-09-11T23:46:21.612Z,79.83
2022-09-11T23:48:48.019Z,79.90
2022-09-11T23:51:15.622Z,80.41
2022-09-11T23:53:44.848Z,79.85
2022-09-11T23:56:12.401Z,78.14
2022-09-11T23:58:44.028Z,76.79
